Time;durP1;ratioP1;P1;durP2;ratioP2;P2;SDS_P1;SDS_P2;PMS_P1;PMS_P2;Temp;Humidity;BMP_temperature;BMP_pressure;BME280_temperature;BME280_humidity;BME280_pressure;Samples;Min_cycle;Max_cycle;Signal;HPM_P1;HPM_P2
2022/12/11 00:01:43;;;;;;;139.68;40.90;;;;;;;-0.15;100.00;101131.91;5259244;28;20065;-84
2022/12/11 00:04:14;;;;;;;156.20;42.33;;;;;;;-0.14;100.00;101130.97;5259574;28;20608;-84
2022/12/11 00:06:49;;;;;;;134.70;39.58;;;;;;;-0.12;100.00;101127.38;5257298;28;20029;-83
2022/12/11 00:09:20;;;;;;;132.48;39.30;;;;;;;-0.12;100.00;101134.38;5259573;28;20478;-83
2022/12/11 00:11:52;;;;;;;139.20;39.75;;;;;;;-0.15;100.00;101124.88;5259445;28;20036;-83
2022/12/11 00:14:23;;;;;;;139.05;41.95;;;;;;;-0.16;100.00;101117.91;5242600;28;20028;-83
2022/12/11 00:16:54;;;;;;;130.88;37.30;;;;;;;-0.09;100.00;101122.00;5253360;28;20029;-84
2022/12/11 00:19:26;;;;;;;138.55;40.40;;;;;;;-0.08;100.00;101120.22;5256514;28;20128;-83
2022/12/11 00:21:57;;;;;;;130.18;38.08;;;;;;;-0.03;100.00;101115.63;5261141;28;20045;-82
2022/12/11 00:24:29;;;;;;;128.88;38.58;;;;;;;-0.05;100.00;101120.09;5258267;28;20056;-83
2022/12/11 00:27:00;;;;;;;128.23;40.92;;;;;;;-0.03;100.00;101121.72;5259553;28;20043;-83
2022/12/11 00:29:31;;;;;;;125.68;39.70;;;;;;;-0.07;100.00;101116.66;5264289;28;20025;-83
2022/12/11 00:32:03;;;;;;;134.10;39.47;;;;;;;-0.03;100.00;101121.72;5245512;28;20034;-83
2022/12/11 00:34:34;;;;;;;120.65;39.08;;;;;;;-0.01;100.00;101117.25;5264052;28;20036;-84
2022/12/11 00:37:05;;;;;;;121.40;38.63;;;;;;;-0.02;100.00;101122.56;5263209;28;20022;-83
2022/12/11 00:39:38;;;;;;;116.65;37.72;;;;;;;-0.01;100.00;101117.25;5263680;28;20385;-83
2022/12/11 00:42:10;;;;;;;129.43;42.60;;;;;;;-0.01;100.00;101116.41;5263147;28;20391;-83
2022/12/11 00:44:41;;;;;;;124.40;40.42;;;;;;;-0.01;100.00;101124.28;5263509;28;20091;-83
2022/12/11 00:47:12;;;;;;;117.50;36.45;;;;;;;-0.01;100.00;101119.03;5244149;28;20018;-83
2022/12/11 00:49:43;;;;;;;116.45;37.75;;;;;;;-0.03;100.00;101124.34;5260960;28;20152;-84
2022/12/11 00:52:16;;;;;;;107.03;37.33;;;;;;;-0.02;100.00;101114.69;5259895;28;20529;-83
2022/12/11 00:54:47;;;;;;;113.72;39.63;;;;;;;-0.02;100.00;101109.44;5259699;28;20033;-84
2022/12/11 00:57:19;;;;;;;108.75;37.80;;;;;;;0.02;100.00;101112.78;5259966;28;20029;-83
2022/12/11 00:59:50;;;;;;;113.40;37.95;;;;;;;0.00;100.00;101110.25;5259373;28;20109;-84
2022/12/11 01:02:21;;;;;;;107.07;38.22;;;;;;;0.04;100.00;101109.19;5259466;28;20080;-82
2022/12/11 01:04:52;;;;;;;110.07;39.95;;;;;;;0.03;100.00;101114.50;5260348;28;20056;-84
2022/12/11 01:07:24;;;;;;;110.68;38.10;;;;;;;0.01;100.00;101113.72;5259357;28;20099;-84
2022/12/11 01:12:45;;;;;;;97.68;37.92;;;;;;;0.05;100.00;101113.50;5260044;28;20045;-84
2022/12/11 01:15:18;;;;;;;97.55;36.72;;;;;;;0.06;100.00;101114.38;5259759;28;20087;-84
2022/12/11 01:17:50;;;;;;;104.43;37.00;;;;;;;0.09;100.00;101109.84;5258275;28;20050;-83
2022/12/11 01:20:23;;;;;;;94.25;34.92;;;;;;;0.10;100.00;101119.41;5259213;28;20091;-83
2022/12/11 01:22:57;;;;;;;90.70;35.22;;;;;;;0.10;100.00;101119.41;5259025;28;20037;-83
2022/12/11 01:25:28;;;;;;;90.70;33.85;;;;;;;0.15;100.00;101120.03;5258952;28;20065;-83
2022/12/11 01:27:59;;;;;;;94.05;35.20;;;;;;;0.13;100.00;101121.88;5258626;28;20021;-83
2022/12/11 01:30:31;;;;;;;88.07;35.15;;;;;;;0.14;100.00;101126.22;5258546;28;20033;-83
2022/12/11 01:33:03;;;;;;;86.47;33.20;;;;;;;0.15;100.00;101116.56;5256181;28;20467;-84
2022/12/11 01:35:35;;;;;;;90.60;35.60;;;;;;;0.16;100.00;101116.50;5239802;28;20041;-83
2022/12/11 01:38:06;;;;;;;89.03;33.65;;;;;;;0.18;100.00;101113.81;5261751;28;20109;-84
2022/12/11 01:40:37;;;;;;;88.35;31.70;;;;;;;0.19;100.00;101107.63;5267562;28;20030;-83
2022/12/11 01:43:10;;;;;;;89.95;33.90;;;;;;;0.29;100.00;101121.22;5270588;28;20021;-81
2022/12/11 01:45:45;;;;;;;83.47;33.80;;;;;;;0.32;100.00;101107.94;5272415;28;20169;-83
2022/12/11 01:48:21;;;;;;;90.53;33.13;;;;;;;0.37;100.00;101116.47;5264074;28;20026;-84
2022/12/11 01:51:02;;;;;;;88.53;32.17;;;;;;;0.44;100.00;101110.00;5261987;28;20023;-83
2022/12/11 01:53:38;;;;;;;100.05;34.13;;;;;;;0.46;100.00;101110.78;5259151;28;20037;-83
2022/12/11 01:56:10;;;;;;;94.70;35.45;;;;;;;0.48;100.00;101098.44;5258454;28;20022;-84
2022/12/11 01:58:56;;;;;;;80.15;30.15;;;;;;;0.64;100.00;101105.59;5258141;28;20052;-83
2022/12/11 02:01:35;;;;;;;97.35;32.33;;;;;;;0.59;100.00;101094.47;5256465;28;20029;-83
2022/12/11 02:04:08;;;;;;;79.32;27.83;;;;;;;0.71;100.00;101102.59;5259266;28;20029;-83
2022/12/11 02:06:45;;;;;;;86.60;32.08;;;;;;;0.77;100.00;101113.75;5241269;28;20049;-83
2022/12/11 02:09:29;;;;;;;84.20;33.88;;;;;;;0.62;100.00;101103.03;5258004;28;20485;-84
2022/12/11 02:12:07;;;;;;;80.85;30.83;;;;;;;0.60;100.00;101101.41;5258269;28;20032;-83
2022/12/11 02:14:45;;;;;;;78.25;31.58;;;;;;;0.60;100.00;101098.78;5257086;28;20064;-83
2022/12/11 02:17:43;;;;;;;84.78;32.72;;;;;;;0.47;100.00;101095.88;5258130;28;20374;-83
2022/12/11 02:20:30;;;;;;;87.30;33.58;;;;;;;0.44;100.00;101101.25;5257370;28;20171;-83
2022/12/11 02:23:01;;;;;;;75.55;31.38;;;;;;;0.37;100.00;101101.56;5257413;28;20436;-83
2022/12/11 02:25:51;;;;;;;75.53;33.85;;;;;;;0.35;100.00;101102.53;5260299;28;20160;-84
2022/12/11 02:28:28;;;;;;;78.93;31.42;;;;;;;0.32;100.00;101095.69;5257440;28;20037;-83
2022/12/11 02:31:08;;;;;;;85.10;34.65;;;;;;;0.24;100.00;101097.78;5258552;28;20573;-83
2022/12/11 02:34:03;;;;;;;72.90;32.13;;;;;;;0.28;100.00;101091.50;5256670;28;20017;-82
2022/12/11 02:36:39;;;;;;;72.07;28.55;;;;;;;0.29;100.00;101090.56;5255684;28;20590;-83
2022/12/11 02:39:13;;;;;;;76.03;30.80;;;;;;;0.28;100.00;101093.25;5257704;28;20036;-83
2022/12/11 02:41:49;;;;;;;66.70;30.88;;;;;;;0.26;100.00;101097.72;5256565;28;20126;-85
2022/12/11 02:44:24;;;;;;;74.57;30.70;;;;;;;0.27;100.00;101102.91;5254507;28;20029;-84
2022/12/11 02:46:57;;;;;;;71.20;30.02;;;;;;;0.29;100.00;101092.34;5256655;28;20554;-83
2022/12/11 02:49:32;;;;;;;63.05;26.95;;;;;;;0.31;100.00;101091.34;5257923;28;20036;-83
2022/12/11 02:52:04;;;;;;;68.32;28.27;;;;;;;0.31;100.00;101093.13;5257496;28;20482;-83
2022/12/11 02:54:38;;;;;;;54.88;26.75;;;;;;;0.27;100.00;101100.28;5259412;28;20803;-83
2022/12/11 02:57:24;;;;;;;56.20;26.67;;;;;;;0.29;100.00;101105.47;5259224;28;20032;-84
2022/12/11 02:59:55;;;;;;;56.97;26.00;;;;;;;0.34;100.00;101103.47;5248331;28;20029;-83
2022/12/11 03:02:27;;;;;;;52.20;25.95;;;;;;;0.29;100.00;101098.44;5265169;28;20037;-83
2022/12/11 03:04:58;;;;;;;52.50;25.02;;;;;;;0.29;100.00;101095.81;5266959;28;20117;-84
2022/12/11 03:07:36;;;;;;;50.97;25.38;;;;;;;0.26;100.00;101095.09;5266799;28;20033;-84
2022/12/11 03:10:10;;;;;;;50.95;24.10;;;;;;;0.26;100.00;101090.69;5267033;28;20056;-83
2022/12/11 03:12:44;;;;;;;49.50;25.20;;;;;;;0.22;100.00;101086.53;5264983;28;20053;-83
2022/12/11 03:15:19;;;;;;;40.67;21.75;;;;;;;0.22;100.00;101081.28;5258540;28;20029;-83
2022/12/11 03:18:20;;;;;;;41.95;22.20;;;;;;;0.26;100.00;101076.72;5258962;28;20033;-84
2022/12/11 03:21:22;;;;;;;40.80;21.33;;;;;;;0.27;100.00;101074.03;5257946;28;20038;-83
2022/12/11 03:24:21;;;;;;;40.75;22.52;;;;;;;0.26;100.00;101080.19;5258649;28;20022;-83
2022/12/11 03:26:59;;;;;;;40.22;22.60;;;;;;;0.20;100.00;101071.78;5255878;28;20042;-83
2022/12/11 03:29:36;;;;;;;35.30;19.77;;;;;;;0.21;100.00;101078.72;5256173;28;20129;-84
2022/12/11 03:32:11;;;;;;;40.55;20.83;;;;;;;0.18;100.00;101069.22;5257421;28;20076;-83
2022/12/11 03:34:59;;;;;;;35.67;19.70;;;;;;;0.23;100.00;101069.00;5241839;28;20030;-84
2022/12/11 03:37:35;;;;;;;34.80;19.73;;;;;;;0.16;100.00;101068.44;5256930;28;20029;-83
2022/12/11 03:40:12;;;;;;;35.28;19.30;;;;;;;0.21;100.00;101065.59;5258798;28;20025;-83
2022/12/11 03:42:47;;;;;;;36.63;20.67;;;;;;;0.15;100.00;101064.94;5257922;28;20053;-83
2022/12/11 03:45:21;;;;;;;36.75;20.98;;;;;;;0.18;100.00;101058.72;5259941;28;20065;-83
2022/12/11 03:47:55;;;;;;;34.42;19.38;;;;;;;0.20;100.00;101054.25;5259845;28;20022;-84
2022/12/11 03:50:30;;;;;;;35.10;20.70;;;;;;;0.21;100.00;101055.97;5257059;28;20691;-83
2022/12/11 03:53:02;;;;;;;37.80;20.08;;;;;;;0.20;100.00;101053.41;5257792;28;20021;-83
2022/12/11 03:55:36;;;;;;;38.38;20.27;;;;;;;0.22;100.00;101049.78;5259651;28;20025;-83
2022/12/11 03:58:07;;;;;;;34.72;19.90;;;;;;;0.20;100.00;101043.75;5261606;28;20030;-83
2022/12/11 04:00:39;;;;;;;37.92;19.48;;;;;;;0.18;100.00;101040.38;5260109;28;20060;-84
2022/12/11 04:03:13;;;;;;;36.00;19.75;;;;;;;0.16;100.00;101032.56;5260686;28;20076;-84
2022/12/11 04:05:48;;;;;;;35.03;19.52;;;;;;;0.29;100.00;101037.25;5259488;28;20026;-84
2022/12/11 04:08:20;;;;;;;39.60;20.98;;;;;;;0.20;100.00;101043.75;5239827;28;20060;-83
2022/12/11 04:11:33;;;;;;;33.22;18.67;;;;;;;0.26;100.00;101045.25;5260630;28;20029;-83
2022/12/11 04:13:43;;;;;;;38.83;19.98;;;;;;;0.16;100.00;101040.44;5265832;28;20517;-83
2022/12/11 04:16:15;;;;;;;29.70;18.08;;;;;;;0.22;100.00;101047.16;5269438;28;20025;-83
2022/12/11 04:24:26;;;;;;;34.72;17.33;;;;;;;0.54;100.00;101055.28;5268784;28;20065;-83
2022/12/11 04:26:57;;;;;;;35.30;18.27;;;;;;;0.52;100.00;101050.13;5261663;28;20072;-83
2022/12/11 04:29:29;;;;;;;35.30;18.52;;;;;;;0.65;100.00;101045.16;5245953;28;20029;-83
2022/12/11 04:32:00;;;;;;;39.72;21.15;;;;;;;0.52;100.00;101041.41;5262511;28;20027;-84
2022/12/11 04:34:31;;;;;;;35.08;20.85;;;;;;;0.56;100.00;101043.81;5264244;28;20541;-83
2022/12/11 04:37:03;;;;;;;40.15;19.80;;;;;;;0.57;100.00;101039.41;5264542;28;20079;-84
2022/12/11 04:39:34;;;;;;;37.38;21.05;;;;;;;0.56;100.00;101030.69;5269253;28;20037;-84
2022/12/11 04:42:05;;;;;;;35.92;21.50;;;;;;;0.53;100.00;101040.50;5271604;28;20112;-83
2022/12/11 04:44:37;;;;;;;37.28;21.02;;;;;;;0.52;100.00;101042.25;5273623;28;20033;-83
2022/12/11 04:47:08;;;;;;;35.03;19.70;;;;;;;0.53;100.00;101037.88;5274765;28;20021;-84
2022/12/11 04:49:40;;;;;;;34.83;19.33;;;;;;;0.60;100.00;101035.78;5256971;28;20116;-83
2022/12/11 04:52:11;;;;;;;33.00;19.75;;;;;;;0.48;100.00;101039.84;5280430;28;20466;-84
2022/12/11 04:54:42;;;;;;;36.03;20.52;;;;;;;0.43;100.00;101042.69;5282520;28;20033;-83
2022/12/11 04:57:14;;;;;;;34.03;19.00;;;;;;;0.45;100.00;101034.75;5281683;28;20060;-82
2022/12/11 04:59:45;;;;;;;33.33;20.05;;;;;;;0.45;100.00;101032.97;5282844;28;20036;-82
2022/12/11 05:02:16;;;;;;;32.40;18.58;;;;;;;0.49;100.00;101031.91;5283564;28;20089;-83
2022/12/11 05:04:48;;;;;;;34.58;21.95;;;;;;;0.39;100.00;101025.41;5278247;28;20120;-83
2022/12/11 05:07:19;;;;;;;37.78;19.95;;;;;;;0.41;100.00;101022.69;5275913;28;20438;-83
2022/12/11 05:09:51;;;;;;;30.73;18.83;;;;;;;0.28;100.00;101027.66;5279618;28;20093;-83
2022/12/11 05:12:22;;;;;;;30.83;18.60;;;;;;;0.20;100.00;101021.94;5259715;28;20026;-82
2022/12/11 05:14:53;;;;;;;29.67;18.98;;;;;;;0.25;100.00;101028.66;5278614;28;20134;-81
2022/12/11 05:17:25;;;;;;;29.30;17.80;;;;;;;0.22;100.00;101020.94;5279482;28;20029;-83
2022/12/11 05:19:56;;;;;;;31.98;19.52;;;;;;;0.22;100.00;101020.94;5278788;28;20462;-83
2022/12/11 05:22:29;;;;;;;34.40;20.52;;;;;;;0.20;100.00;101017.53;5280018;28;20039;-83
2022/12/11 05:25:01;;;;;;;36.20;19.83;;;;;;;0.21;100.00;101018.38;5279511;28;20029;-83
2022/12/11 05:27:32;;;;;;;32.80;19.48;;;;;;;0.23;100.00;101020.03;5275693;28;20042;-83
2022/12/11 05:30:04;;;;;;;28.67;19.20;;;;;;;0.16;100.00;101022.06;5278318;28;20032;-84
2022/12/11 05:32:36;;;;;;;27.02;18.02;;;;;;;0.18;100.00;101017.59;5272528;28;20029;-83
2022/12/11 05:35:07;;;;;;;28.33;16.30;;;;;;;0.21;100.00;101005.25;5268657;28;20032;-83
2022/12/11 05:37:38;;;;;;;28.25;17.10;;;;;;;0.23;100.00;101012.16;5270460;28;20055;-83
2022/12/11 05:40:13;;;;;;;29.50;18.48;;;;;;;0.21;100.00;101005.25;5272308;28;20067;-83
2022/12/11 05:42:44;;;;;;;27.17;16.95;;;;;;;0.30;100.00;101010.94;5271556;28;20034;-83
2022/12/11 05:45:16;;;;;;;31.70;18.50;;;;;;;0.27;100.00;101007.59;5272731;28;20022;-83
2022/12/11 05:47:47;;;;;;;31.02;17.55;;;;;;;0.31;100.00;101011.78;5272272;28;20029;-82
2022/12/11 05:50:19;;;;;;;26.48;17.00;;;;;;;0.26;100.00;101009.34;5265539;28;20033;-83
2022/12/11 05:52:50;;;;;;;25.98;16.35;;;;;;;0.34;100.00;101015.09;5259648;28;20111;-83
2022/12/11 05:55:21;;;;;;;29.00;17.33;;;;;;;0.30;100.00;101021.44;5259572;28;20056;-84
2022/12/11 05:57:53;;;;;;;30.30;17.17;;;;;;;0.28;100.00;101023.28;5259587;28;20036;-83
2022/12/11 06:00:24;;;;;;;28.23;17.15;;;;;;;0.29;100.00;101018.88;5258901;28;20030;-83
2022/12/11 06:02:56;;;;;;;26.75;17.33;;;;;;;0.29;100.00;101019.72;5260410;28;20033;-83
2022/12/11 06:05:27;;;;;;;27.05;16.33;;;;;;;0.35;100.00;101027.31;5261631;28;20025;-84
2022/12/11 06:07:58;;;;;;;26.48;16.08;;;;;;;0.47;100.00;101012.72;5260871;28;20148;-84
2022/12/11 06:10:29;;;;;;;29.55;16.80;;;;;;;0.44;100.00;101018.16;5262411;28;20509;-84
2022/12/11 06:13:01;;;;;;;30.85;17.90;;;;;;;0.37;100.00;101020.22;5265535;28;20374;-84
2022/12/11 06:15:32;;;;;;;29.40;17.02;;;;;;;0.40;100.00;101023.59;5262306;28;20172;-83
2022/12/11 06:18:03;;;;;;;28.80;17.70;;;;;;;0.37;100.00;101022.00;5260362;28;20109;-84
2022/12/11 06:20:35;;;;;;;26.30;15.73;;;;;;;0.44;100.00;101019.91;5269668;28;20514;-84
2022/12/11 06:23:06;;;;;;;26.90;16.83;;;;;;;0.45;100.00;101016.38;5259316;28;20025;-83
2022/12/11 06:25:38;;;;;;;28.83;17.08;;;;;;;0.43;100.00;101016.44;5259316;28;20049;-84
2022/12/11 06:28:10;;;;;;;29.70;16.70;;;;;;;0.43;100.00;101015.59;5259974;28;20041;-83
2022/12/11 06:30:41;;;;;;;28.25;15.93;;;;;;;0.50;100.00;101014.38;5258222;28;20080;-84
2022/12/11 06:33:13;;;;;;;30.88;17.17;;;;;;;0.51;100.00;101022.19;5258274;28;20021;-84
2022/12/11 06:35:44;;;;;;;27.50;17.33;;;;;;;0.57;100.00;101018.41;5257345;28;20394;-84
2022/12/11 06:38:16;;;;;;;26.48;16.15;;;;;;;0.61;100.00;101019.09;5258975;28;20034;-82
2022/12/11 06:40:58;;;;;;;28.05;17.23;;;;;;;0.48;100.00;101022.31;5257416;28;20045;-83
2022/12/11 06:43:34;;;;;;;29.25;17.83;;;;;;;0.44;100.00;101019.91;5258159;28;20026;-84
2022/12/11 06:46:14;;;;;;;26.13;15.97;;;;;;;0.55;100.00;101005.34;5259572;28;20030;-84
2022/12/11 06:48:46;;;;;;;31.63;17.90;;;;;;;0.55;100.00;101020.25;5264686;28;20116;-84
2022/12/11 06:51:21;;;;;;;29.50;16.48;;;;;;;0.59;100.00;101008.69;5268130;28;20040;-83
2022/12/11 06:53:55;;;;;;;23.70;15.60;;;;;;;0.69;100.00;101006.47;5267406;28;20044;-84
2022/12/11 06:56:26;;;;;;;27.83;18.02;;;;;;;0.52;100.00;101007.28;5281850;28;20065;-83
2022/12/11 06:58:57;;;;;;;28.17;16.85;;;;;;;0.54;100.00;101003.66;5278645;28;20033;-83
2022/12/11 07:01:29;;;;;;;24.23;15.90;;;;;;;0.50;100.00;101006.50;5249704;28;20029;-82
2022/12/11 07:04:00;;;;;;;26.08;17.25;;;;;;;0.43;100.00;101005.94;5262109;28;20156;-83
2022/12/11 07:06:32;;;;;;;27.38;16.63;;;;;;;0.49;100.00;101013.53;5257780;28;20064;-83
2022/12/11 07:09:04;;;;;;;28.27;17.50;;;;;;;0.47;100.00;101019.78;5258962;28;20025;-83
2022/12/11 07:11:35;;;;;;;28.13;17.52;;;;;;;0.40;100.00;101021.81;5258614;28;20427;-83
2022/12/11 07:14:07;;;;;;;24.02;16.27;;;;;;;0.37;100.00;101019.38;5257101;28;20029;-84
2022/12/11 07:16:39;;;;;;;30.10;18.95;;;;;;;0.42;100.00;101027.88;5257528;28;20022;-84
2022/12/11 07:19:10;;;;;;;25.92;17.35;;;;;;;0.43;100.00;101026.94;5257481;28;20111;-84
2022/12/11 07:21:41;;;;;;;30.15;18.05;;;;;;;0.44;100.00;101030.41;5257973;28;20068;-84
2022/12/11 07:24:13;;;;;;;24.80;15.48;;;;;;;0.69;100.00;101028.31;5239257;28;20124;-83
2022/12/11 07:26:45;;;;;;;28.33;17.92;;;;;;;0.55;100.00;101030.75;5246497;28;20045;-83
2022/12/11 07:29:16;;;;;;;30.55;19.23;;;;;;;0.56;100.00;101041.19;5257326;28;20117;-84
2022/12/11 07:31:47;;;;;;;29.48;18.38;;;;;;;0.55;100.00;101044.72;5258025;28;20025;-84
2022/12/11 07:34:19;;;;;;;28.27;17.52;;;;;;;0.44;100.00;101039.16;5260446;28;20029;-84
2022/12/11 07:36:50;;;;;;;28.85;15.10;;;;;;;0.68;100.00;101044.97;5260819;28;20132;-83
2022/12/11 07:39:21;;;;;;;29.75;18.52;;;;;;;0.56;100.00;101035.06;5261516;28;20076;-83
2022/12/11 07:41:53;;;;;;;26.83;16.23;;;;;;;0.61;100.00;101029.59;5275395;28;20140;-83
2022/12/11 07:44:24;;;;;;;30.65;19.67;;;;;;;0.47;100.00;101038.13;5260696;28;20140;-84
2022/12/11 07:46:55;;;;;;;26.13;17.35;;;;;;;0.53;100.00;101030.00;5260598;28;20053;-84
2022/12/11 07:49:27;;;;;;;25.48;16.83;;;;;;;0.51;100.00;101034.47;5260983;28;20587;-84
2022/12/11 07:51:58;;;;;;;28.70;17.23;;;;;;;0.55;100.00;101034.22;5259311;28;20029;-84
2022/12/11 07:54:29;;;;;;;28.02;17.52;;;;;;;0.53;100.00;101030.84;5259829;28;20030;-83
2022/12/11 07:57:01;;;;;;;34.97;19.40;;;;;;;0.53;100.00;101041.31;5261147;28;20100;-84
2022/12/11 07:59:32;;;;;;;28.98;18.55;;;;;;;0.48;100.00;101030.19;5262449;28;20038;-83
2022/12/11 08:02:03;;;;;;;31.33;19.25;;;;;;;0.50;100.00;101035.38;5260262;28;20037;-85
2022/12/11 08:04:35;;;;;;;32.47;19.15;;;;;;;0.46;100.00;101029.44;5260815;28;20545;-84
2022/12/11 08:07:09;;;;;;;26.98;16.38;;;;;;;0.51;100.00;101030.06;5258499;28;20018;-83
2022/12/11 08:09:40;;;;;;;34.35;20.40;;;;;;;0.47;100.00;101032.88;5258680;28;20021;-84
2022/12/11 08:12:12;;;;;;;34.35;18.13;;;;;;;0.52;100.00;101036.16;5259195;28;20028;-84
2022/12/11 08:14:43;;;;;;;35.22;18.52;;;;;;;0.46;100.00;101028.59;5261403;28;20026;-84
2022/12/11 08:17:17;;;;;;;32.17;19.80;;;;;;;0.45;100.00;101034.75;5261615;28;20029;-83
2022/12/11 08:19:49;;;;;;;31.63;18.80;;;;;;;0.46;100.00;101041.72;5264290;28;20028;-83
2022/12/11 08:22:20;;;;;;;33.05;18.73;;;;;;;0.46;100.00;101034.66;5262090;28;20034;-82
2022/12/11 08:24:51;;;;;;;31.60;17.98;;;;;;;0.44;100.00;101026.03;5265520;28;20022;-83
2022/12/11 08:27:23;;;;;;;32.72;18.92;;;;;;;0.42;100.00;101030.50;5266500;28;20042;-83
2022/12/11 08:29:54;;;;;;;32.97;19.73;;;;;;;0.46;100.00;101032.03;5267628;28;20129;-84
2022/12/11 08:32:25;;;;;;;34.45;19.05;;;;;;;0.44;100.00;101030.41;5264547;28;20061;-83
2022/12/11 08:34:57;;;;;;;34.03;18.48;;;;;;;0.51;100.00;101042.34;5265039;28;20120;-83
2022/12/11 08:37:28;;;;;;;32.30;18.83;;;;;;;0.46;100.00;101033.84;5242227;28;20096;-83
2022/12/11 08:39:59;;;;;;;30.85;17.58;;;;;;;0.50;100.00;101035.38;5259415;28;20462;-82
2022/12/11 08:42:31;;;;;;;29.75;15.50;;;;;;;0.78;100.00;101032.28;5257460;28;20506;-82
2022/12/11 08:45:03;;;;;;;34.92;20.80;;;;;;;0.63;100.00;101033.00;5257524;28;20056;-82
2022/12/11 08:47:34;;;;;;;35.63;19.70;;;;;;;0.84;100.00;101039.88;5259101;28;20040;-82
2022/12/11 08:50:06;;;;;;;35.20;21.05;;;;;;;0.65;100.00;101031.16;5258543;28;20029;-82
2022/12/11 08:52:37;;;;;;;34.78;19.60;;;;;;;0.78;100.00;101024.38;5259664;28;20025;-83
2022/12/11 08:55:09;;;;;;;37.53;20.35;;;;;;;0.80;100.00;101022.53;5260717;28;20017;-82
2022/12/11 08:57:40;;;;;;;36.20;21.27;;;;;;;0.84;100.00;101018.84;5262054;28;20026;-83
2022/12/11 09:00:14;;;;;;;34.63;19.52;;;;;;;1.02;100.00;101027.59;5239184;28;20030;-82
2022/12/11 09:02:46;;;;;;;32.50;19.02;;;;;;;0.82;100.00;101028.56;5259310;28;20064;-82
2022/12/11 09:05:17;;;;;;;30.90;18.35;;;;;;;0.73;100.00;101029.00;5258250;28;20053;-82
2022/12/11 09:07:48;;;;;;;31.42;17.98;;;;;;;0.65;100.00;101029.41;5256824;28;20023;-82
2022/12/11 09:10:20;;;;;;;32.95;19.27;;;;;;;0.63;100.00;101020.75;5261427;28;20029;-82
2022/12/11 09:12:52;;;;;;;34.47;19.63;;;;;;;0.56;100.00;101024.56;5262325;28;20149;-82
2022/12/11 09:15:23;;;;;;;29.80;17.42;;;;;;;0.63;100.00;101017.25;5261126;28;20026;-82
2022/12/11 09:17:54;;;;;;;32.20;18.13;;;;;;;0.63;100.00;101027.75;5262055;28;20034;-82
2022/12/11 09:20:26;;;;;;;38.13;18.88;;;;;;;0.57;100.00;101026.28;5270154;28;20025;-82
2022/12/11 09:22:57;;;;;;;32.25;20.13;;;;;;;0.55;100.00;101028.13;5278603;28;20533;-82
2022/12/11 09:25:28;;;;;;;32.50;18.67;;;;;;;0.59;100.00;101023.59;5264864;28;20160;-82
2022/12/11 09:28:00;;;;;;;30.48;18.05;;;;;;;0.64;100.00;101029.47;5270211;28;20021;-81
2022/12/11 09:30:31;;;;;;;33.33;19.02;;;;;;;0.64;100.00;101017.19;5279481;28;20021;-80
2022/12/11 09:33:03;;;;;;;37.50;20.38;;;;;;;0.59;100.00;101028.84;5273369;28;20036;-82
2022/12/11 09:35:34;;;;;;;32.90;18.88;;;;;;;0.66;100.00;101019.75;5270692;28;20053;-81
2022/12/11 09:38:06;;;;;;;33.25;19.42;;;;;;;0.63;100.00;101019.88;5263170;28;20053;-82
2022/12/11 09:40:42;;;;;;;32.53;21.60;;;;;;;0.57;100.00;101021.88;5258549;28;20041;-82
2022/12/11 09:43:21;;;;;;;34.25;19.35;;;;;;;0.65;100.00;101020.66;5255768;28;20026;-83
2022/12/11 09:45:55;;;;;;;35.15;20.45;;;;;;;0.67;100.00;101022.28;5257557;28;20032;-83
2022/12/11 09:48:26;;;;;;;32.90;17.55;;;;;;;0.96;100.00;101019.16;5235358;28;20041;-82
2022/12/11 09:51:04;;;;;;;37.58;21.65;;;;;;;0.82;100.00;101018.06;5258387;28;20633;-82
2022/12/11 09:53:36;;;;;;;34.30;20.17;;;;;;;0.75;100.00;101020.16;5258053;28;20021;-82
2022/12/11 09:56:21;;;;;;;33.85;19.85;;;;;;;0.98;100.00;101007.63;5242196;28;20088;-81
2022/12/11 09:59:27;;;;;;;33.50;18.75;;;;;;;1.18;100.00;101011.06;5260940;28;20430;-82
2022/12/11 10:02:12;;;;;;;37.17;20.77;;;;;;;1.11;100.00;101015.78;5240674;28;20407;-81
2022/12/11 10:05:00;;;;;;;34.05;18.58;;;;;;;0.97;100.00;101013.00;5237036;28;20041;-82
2022/12/11 10:07:46;;;;;;;33.42;19.58;;;;;;;0.90;100.00;101012.44;5241354;28;20041;-82
2022/12/11 10:10:41;;;;;;;33.72;19.63;;;;;;;0.81;100.00;101015.50;5248391;28;20041;-82
2022/12/11 10:13:28;;;;;;;34.72;19.42;;;;;;;0.81;100.00;101007.63;5220767;28;20041;-82
2022/12/11 10:16:12;;;;;;;30.83;18.85;;;;;;;0.74;100.00;101010.56;5240446;28;20097;-82
2022/12/11 10:18:44;;;;;;;33.10;17.77;;;;;;;0.73;100.00;101010.63;5259803;28;20029;-82
2022/12/11 10:21:18;;;;;;;31.58;18.25;;;;;;;0.71;100.00;101009.88;5258221;28;20021;-82
2022/12/11 10:23:54;;;;;;;34.15;19.70;;;;;;;0.67;100.00;101009.16;5255648;28;20028;-82
2022/12/11 10:26:28;;;;;;;29.98;17.90;;;;;;;0.63;100.00;101014.63;5259168;28;20069;-82
2022/12/11 10:29:00;;;;;;;30.17;18.27;;;;;;;0.60;100.00;101005.13;5257471;28;20763;-82
2022/12/11 10:31:41;;;;;;;28.42;17.75;;;;;;;0.59;100.00;101000.81;5254103;28;20075;-81
2022/12/11 10:34:24;;;;;;;31.00;18.15;;;;;;;0.64;100.00;100996.19;5258244;28;20018;-82
2022/12/11 10:36:56;;;;;;;31.98;18.08;;;;;;;0.65;100.00;101004.91;5256945;28;20029;-82
2022/12/11 10:39:27;;;;;;;31.30;18.48;;;;;;;0.60;100.00;100999.03;5254622;28;20044;-82
2022/12/11 10:42:11;;;;;;;34.25;18.85;;;;;;;0.62;100.00;101000.66;5255804;28;20577;-81
2022/12/11 10:44:55;;;;;;;33.35;17.67;;;;;;;0.67;100.00;100993.41;5254490;28;20042;-82
2022/12/11 10:47:27;;;;;;;30.73;18.25;;;;;;;0.65;100.00;100991.78;5251162;28;20061;-82
2022/12/11 10:50:01;;;;;;;32.47;19.02;;;;;;;0.71;100.00;100994.09;5238221;28;20473;-82
2022/12/11 10:52:43;;;;;;;32.75;18.85;;;;;;;0.75;100.00;100993.03;5256903;28;20034;-81
2022/12/11 10:55:23;;;;;;;29.98;18.80;;;;;;;0.84;100.00;100987.34;5254874;28;20486;-81
2022/12/11 10:57:59;;;;;;;32.75;19.95;;;;;;;0.84;100.00;100982.09;5257976;28;20496;-82
2022/12/11 11:00:37;;;;;;;31.17;16.97;;;;;;;0.88;100.00;100985.41;5257943;28;20029;-82
2022/12/11 11:03:28;;;;;;;32.55;18.67;;;;;;;0.98;100.00;100988.41;5255616;28;20101;-82
2022/12/11 11:06:05;;;;;;;26.95;16.20;;;;;;;1.03;100.00;100981.97;5251973;28;20061;-82
2022/12/11 11:08:43;;;;;;;31.27;17.35;;;;;;;1.13;100.00;100985.00;5254993;28;20114;-82
2022/12/11 11:11:48;;;;;;;31.42;19.08;;;;;;;1.24;100.00;100985.28;5239895;28;20040;-82
2022/12/11 11:14:21;;;;;;;31.33;19.30;;;;;;;1.08;100.00;100977.34;5253937;28;20033;-82
2022/12/11 11:16:59;;;;;;;32.33;17.88;;;;;;;1.25;100.00;100980.91;5251918;28;20393;-81
2022/12/11 11:19:35;;;;;;;31.25;17.80;;;;;;;1.28;100.00;100978.97;5254735;28;20600;-82
2022/12/11 11:22:12;;;;;;;29.63;17.02;;;;;;;1.37;100.00;100974.16;5256937;28;20030;-82
2022/12/11 11:24:55;;;;;;;29.63;17.75;;;;;;;1.32;100.00;100970.00;5254049;28;20033;-81
2022/12/11 11:27:35;;;;;;;29.77;16.83;;;;;;;1.27;100.00;100976.41;5253033;28;20100;-82
2022/12/11 11:30:18;;;;;;;31.77;19.58;;;;;;;1.25;100.00;100973.03;5255603;28;20072;-82
2022/12/11 11:32:55;;;;;;;31.60;18.40;;;;;;;1.22;100.00;100976.66;5252791;28;20036;-82
2022/12/11 11:35:29;;;;;;;25.77;16.15;;;;;;;1.25;100.00;100973.88;5236007;28;20033;-82
2022/12/11 11:38:18;;;;;;;27.58;17.15;;;;;;;1.31;100.00;100970.06;5251903;28;20080;-83
2022/12/11 11:40:53;;;;;;;30.67;18.20;;;;;;;1.43;100.00;100966.78;5254703;28;20104;-82
2022/12/11 11:43:37;;;;;;;27.85;17.10;;;;;;;1.48;100.00;100967.41;5235841;28;20104;-81
2022/12/11 11:46:17;;;;;;;29.13;17.80;;;;;;;1.56;100.00;100974.03;5256624;28;20888;-82
2022/12/11 11:49:06;;;;;;;32.15;18.13;;;;;;;1.72;100.00;100963.53;5260262;28;20034;-81